Rudolph, Wisconsin
Current Conditions -  °F | °C
As of 3:54 PM on Monday 20 Oct 2014 (Local Time) from KISW Reporting Station
Overcast Overcast  
Wind Chill: 55°   Ceiling: 4700
Heat Index: 55°   Visibility: 10mi
Dew Point: 39°   Wind: 15mph
Humidity: 55%   Direction: 340°NNW
Pressure: 29.96"   Gusts: 20mph
Location:  44.5°N, 89.81°W
Report Text: KISW 202054Z AUTO 34013G17KT 10SM OVC047 13/04 A2996 RMK AO2 SLP149 T01280039 53010
Loading
Personal Weather Stations






























Interactive Weather Map
Tropical Storm Tracking
New forecast layout! Learn more

10-Day Weather Forecast

Advertisements
Track Severe Weather on mobile